sensor_id;sensor_type;location;lat;lon;timestamp;pressure;altitude;pressure_sealevel;temperature;humidity
14800;BME280;7491;57.750;11.970;2023-04-08T00:00:26;77658.22;;;-142.11;97.04
14800;BME280;7491;57.750;11.970;2023-04-08T00:02:53;77672.50;;;-142.11;96.89
14800;BME280;7491;57.750;11.970;2023-04-08T00:05:19;77674.53;;;-142.11;97.15
14800;BME280;7491;57.750;11.970;2023-04-08T00:07:46;77674.53;;;-142.11;96.88
14800;BME280;7491;57.750;11.970;2023-04-08T00:10:13;77660.25;;;-142.11;96.90
14800;BME280;7491;57.750;11.970;2023-04-08T00:12:39;77668.41;;;-142.11;96.85
14800;BME280;7491;57.750;11.970;2023-04-08T00:15:08;77664.34;;;-142.11;97.20
14800;BME280;7491;57.750;11.970;2023-04-08T00:17:35;77662.28;;;-142.11;97.16
14800;BME280;7491;57.750;11.970;2023-04-08T00:20:01;77660.25;;;-142.11;97.08
14800;BME280;7491;57.750;11.970;2023-04-08T00:22:28;77666.38;;;-142.11;97.09
14800;BME280;7491;57.750;11.970;2023-04-08T00:24:56;77648.03;;;-142.11;97.05
14800;BME280;7491;57.750;11.970;2023-04-08T00:27:23;77662.28;;;-142.11;97.04
14800;BME280;7491;57.750;11.970;2023-04-08T00:29:50;77645.97;;;-142.11;97.07
14800;BME280;7491;57.750;11.970;2023-04-08T00:32:18;77664.34;;;-142.11;96.76
14800;BME280;7491;57.750;11.970;2023-04-08T00:34:45;77664.34;;;-142.11;97.04
14800;BME280;7491;57.750;11.970;2023-04-08T00:37:11;77660.25;;;-142.11;96.84
14800;BME280;7491;57.750;11.970;2023-04-08T00:39:38;77660.25;;;-142.11;96.36
14800;BME280;7491;57.750;11.970;2023-04-08T00:42:04;77654.13;;;-142.11;96.62
14800;BME280;7491;57.750;11.970;2023-04-08T00:44:31;77643.94;;;-142.11;96.55
14800;BME280;7491;57.750;11.970;2023-04-08T00:46:58;77639.88;;;-142.11;96.41
14800;BME280;7491;57.750;11.970;2023-04-08T00:49:26;77656.19;;;-142.11;96.36
14800;BME280;7491;57.750;11.970;2023-04-08T00:51:53;77658.22;;;-142.11;96.23
14800;BME280;7491;57.750;11.970;2023-04-08T00:54:20;77660.25;;;-142.11;96.30
14800;BME280;7491;57.750;11.970;2023-04-08T00:56:46;77658.22;;;-142.11;96.55
14800;BME280;7491;57.750;11.970;2023-04-08T00:59:13;77668.41;;;-142.11;96.37
14800;BME280;7491;57.750;11.970;2023-04-08T01:01:45;77656.19;;;-142.11;96.55
14800;BME280;7491;57.750;11.970;2023-04-08T01:04:21;77666.38;;;-142.11;96.76
14800;BME280;7491;57.750;11.970;2023-04-08T01:06:58;77660.25;;;-142.11;96.23
14800;BME280;7491;57.750;11.970;2023-04-08T01:09:31;77648.03;;;-142.11;96.63
14800;BME280;7491;57.750;11.970;2023-04-08T01:11:59;77645.97;;;-142.11;96.25
14800;BME280;7491;57.750;11.970;2023-04-08T01:14:30;77648.03;;;-142.11;96.03
14800;BME280;7491;57.750;11.970;2023-04-08T01:16:59;77660.25;;;-142.11;96.62
14800;BME280;7491;57.750;11.970;2023-04-08T01:19:28;77672.50;;;-142.11;96.63
14800;BME280;7491;57.750;11.970;2023-04-08T01:22:02;77664.34;;;-142.11;96.57
14800;BME280;7491;57.750;11.970;2023-04-08T01:24:38;77666.38;;;-142.11;96.38
14800;BME280;7491;57.750;11.970;2023-04-08T01:27:08;77660.25;;;-142.11;96.53
14800;BME280;7491;57.750;11.970;2023-04-08T01:29:36;77666.38;;;-142.11;96.64
14800;BME280;7491;57.750;11.970;2023-04-08T01:32:03;77666.38;;;-142.11;96.69
14800;BME280;7491;57.750;11.970;2023-04-08T01:34:33;77668.41;;;-142.11;97.17
14800;BME280;7491;57.750;11.970;2023-04-08T01:37:01;77670.44;;;-142.11;97.14
14800;BME280;7491;57.750;11.970;2023-04-08T01:39:30;77670.44;;;-142.11;96.99
14800;BME280;7491;57.750;11.970;2023-04-08T01:41:58;77664.34;;;-142.11;97.06
14800;BME280;7491;57.750;11.970;2023-04-08T01:44:26;77664.34;;;-142.11;96.98
14800;BME280;7491;57.750;11.970;2023-04-08T01:46:54;77672.50;;;-142.11;97.21
14800;BME280;7491;57.750;11.970;2023-04-08T01:49:22;77676.56;;;-142.11;97.01
14800;BME280;7491;57.750;11.970;2023-04-08T01:51:51;77676.56;;;-142.11;97.09
14800;BME280;7491;57.750;11.970;2023-04-08T01:54:19;77676.56;;;-142.11;97.04
14800;BME280;7491;57.750;11.970;2023-04-08T01:56:45;77684.72;;;-142.11;97.19
14800;BME280;7491;57.750;11.970;2023-04-08T01:59:14;77684.72;;;-142.11;96.91
14800;BME280;7491;57.750;11.970;2023-04-08T02:01:44;77686.75;;;-142.11;97.34
14800;BME280;7491;57.750;11.970;2023-04-08T02:04:12;77694.91;;;-142.11;97.34
14800;BME280;7491;57.750;11.970;2023-04-08T02:06:38;77694.91;;;-142.11;97.42
14800;BME280;7491;57.750;11.970;2023-04-08T02:09:05;77703.09;;;-142.11;97.59
14800;BME280;7491;57.750;11.970;2023-04-08T02:11:32;77701.03;;;-142.11;97.34
14800;BME280;7491;57.750;11.970;2023-04-08T02:13:59;77690.84;;;-142.11;97.77
14800;BME280;7491;57.750;11.970;2023-04-08T02:16:29;77692.88;;;-142.11;97.64
14800;BME280;7491;57.750;11.970;2023-04-08T02:19:02;77709.19;;;-142.11;97.58
14800;BME280;7491;57.750;11.970;2023-04-08T02:21:32;77711.25;;;-142.11;97.62
14800;BME280;7491;57.750;11.970;2023-04-08T02:24:04;77696.97;;;-142.11;97.55
14800;BME280;7491;57.750;11.970;2023-04-08T02:26:32;77705.13;;;-142.11;97.63
14800;BME280;7491;57.750;11.970;2023-04-08T02:29:00;77703.09;;;-142.11;97.70
14800;BME280;7491;57.750;11.970;2023-04-08T02:31:28;77711.25;;;-142.11;97.79
14800;BME280;7491;57.750;11.970;2023-04-08T02:33:55;77717.34;;;-142.11;98.27
14800;BME280;7491;57.750;11.970;2023-04-08T02:36:24;77711.25;;;-142.11;98.25
14800;BME280;7491;57.750;11.970;2023-04-08T02:38:51;77715.31;;;-142.11;98.12
14800;BME280;7491;57.750;11.970;2023-04-08T02:41:18;77727.56;;;-142.11;98.65
14800;BME280;7491;57.750;11.970;2023-04-08T02:43:45;77713.28;;;-142.11;98.55
14800;BME280;7491;57.750;11.970;2023-04-08T02:46:12;77739.78;;;-142.11;98.70
14800;BME280;7491;57.750;11.970;2023-04-08T02:48:38;77723.47;;;-142.11;98.95
14800;BME280;7491;57.750;11.970;2023-04-08T02:51:05;77725.50;;;-142.11;98.81
14800;BME280;7491;57.750;11.970;2023-04-08T02:53:33;77731.63;;;-142.11;99.22
14800;BME280;7491;57.750;11.970;2023-04-08T02:56:00;77737.75;;;-142.11;99.46
14800;BME280;7491;57.750;11.970;2023-04-08T02:58:27;77723.47;;;-142.11;99.45
14800;BME280;7491;57.750;11.970;2023-04-08T03:00:54;77735.72;;;-142.11;99.67
14800;BME280;7491;57.750;11.970;2023-04-08T03:03:21;77727.56;;;-142.11;99.63
14800;BME280;7491;57.750;11.970;2023-04-08T03:05:51;77739.78;;;-142.11;100.00
14800;BME280;7491;57.750;11.970;2023-04-08T03:08:18;77735.72;;;-142.11;100.00
14800;BME280;7491;57.750;11.970;2023-04-08T03:10:46;77737.75;;;-142.11;100.00
14800;BME280;7491;57.750;11.970;2023-04-08T03:13:13;77737.75;;;-142.11;100.00
14800;BME280;7491;57.750;11.970;2023-04-08T03:15:40;77741.84;;;-142.11;100.00
14800;BME280;7491;57.750;11.970;2023-04-08T03:18:06;77752.03;;;-142.11;100.00
14800;BME280;7491;57.750;11.970;2023-04-08T03:20:33;77743.88;;;-142.11;100.00
14800;BME280;7491;57.750;11.970;2023-04-08T03:23:00;77745.91;;;-142.11;100.00
14800;BME280;7491;57.750;11.970;2023-04-08T03:25:27;77752.03;;;-142.11;100.00
14800;BME280;7491;57.750;11.970;2023-04-08T03:27:55;77745.91;;;-142.11;100.00
14800;BME280;7491;57.750;11.970;2023-04-08T03:30:21;77735.72;;;-142.11;100.00
14800;BME280;7491;57.750;11.970;2023-04-08T03:32:48;77743.88;;;-142.11;100.00
14800;BME280;7491;57.750;11.970;2023-04-08T03:35:15;77737.75;;;-142.11;100.00
14800;BME280;7491;57.750;11.970;2023-04-08T03:37:41;77739.78;;;-142.11;100.00
14800;BME280;7491;57.750;11.970;2023-04-08T03:40:09;77733.66;;;-142.11;100.00
14800;BME280;7491;57.750;11.970;2023-04-08T03:42:36;77743.88;;;-142.11;100.00
14800;BME280;7491;57.750;11.970;2023-04-08T03:45:05;77739.78;;;-142.11;100.00
14800;BME280;7491;57.750;11.970;2023-04-08T03:47:32;77739.78;;;-142.11;100.00
14800;BME280;7491;57.750;11.970;2023-04-08T03:49:59;77739.78;;;-142.11;100.00
14800;BME280;7491;57.750;11.970;2023-04-08T03:52:25;77735.72;;;-142.11;100.00
14800;BME280;7491;57.750;11.970;2023-04-08T03:54:52;77741.84;;;-142.11;100.00
14800;BME280;7491;57.750;11.970;2023-04-08T03:57:19;77745.91;;;-142.11;100.00
14800;BME280;7491;57.750;11.970;2023-04-08T03:59:45;77739.78;;;-142.11;100.00
14800;BME280;7491;57.750;11.970;2023-04-08T04:02:13;77772.41;;;-142.11;100.00
14800;BME280;7491;57.750;11.970;2023-04-08T04:04:40;77750.00;;;-142.11;100.00
14800;BME280;7491;57.750;11.970;2023-04-08T04:07:07;77762.22;;;-142.11;100.00
14800;BME280;7491;57.750;11.970;2023-04-08T04:09:33;77758.16;;;-142.11;100.00
14800;BME280;7491;57.750;11.970;2023-04-08T04:12:00;77758.16;;;-142.11;100.00
14800;BME280;7491;57.750;11.970;2023-04-08T04:14:26;77754.06;;;-142.11;100.00
14800;BME280;7491;57.750;11.970;2023-04-08T04:16:53;77756.09;;;-142.11;100.00
14800;BME280;7491;57.750;11.970;2023-04-08T04:19:21;77750.00;;;-142.11;100.00
14800;BME280;7491;57.750;11.970;2023-04-08T04:21:48;77766.31;;;-142.11;100.00
14800;BME280;7491;57.750;11.970;2023-04-08T04:24:14;77758.16;;;-142.11;100.00
14800;BME280;7491;57.750;11.970;2023-04-08T04:26:41;77764.25;;;-142.11;100.00
14800;BME280;7491;57.750;11.970;2023-04-08T04:29:07;77772.41;;;-142.11;100.00
14800;BME280;7491;57.750;11.970;2023-04-08T04:31:34;77764.25;;;-142.11;100.00
14800;BME280;7491;57.750;11.970;2023-04-08T04:34:01;77772.41;;;-142.11;100.00
14800;BME280;7491;57.750;11.970;2023-04-08T04:36:28;77766.31;;;-142.11;100.00
14800;BME280;7491;57.750;11.970;2023-04-08T04:38:56;77762.22;;;-142.11;100.00
14800;BME280;7491;57.750;11.970;2023-04-08T04:41:22;77770.38;;;-142.11;100.00
14800;BME280;7491;57.750;11.970;2023-04-08T04:43:49;77770.38;;;-142.11;100.00
14800;BME280;7491;57.750;11.970;2023-04-08T04:46:16;77780.59;;;-142.11;100.00
14800;BME280;7491;57.750;11.970;2023-04-08T04:48:42;77774.47;;;-142.11;100.00
14800;BME280;7491;57.750;11.970;2023-04-08T04:51:09;77788.75;;;-142.11;100.00
14800;BME280;7491;57.750;11.970;2023-04-08T04:53:37;77784.66;;;-142.11;100.00
14800;BME280;7491;57.750;11.970;2023-04-08T04:56:04;77800.97;;;-142.11;100.00
14800;BME280;7491;57.750;11.970;2023-04-08T04:58:30;77782.63;;;-142.11;100.00
14800;BME280;7491;57.750;11.970;2023-04-08T05:00:57;77790.78;;;-142.11;100.00
14800;BME280;7491;57.750;11.970;2023-04-08T05:03:24;77798.94;;;-142.11;100.00
14800;BME280;7491;57.750;11.970;2023-04-08T05:05:51;77784.66;;;-142.11;100.00
14800;BME280;7491;57.750;11.970;2023-04-08T05:08:18;77790.78;;;-142.11;100.00
14800;BME280;7491;57.750;11.970;2023-04-08T05:10:46;77792.81;;;-142.11;100.00
14800;BME280;7491;57.750;11.970;2023-04-08T05:13:14;77792.81;;;-142.11;100.00
14800;BME280;7491;57.750;11.970;2023-04-08T05:15:41;77794.84;;;-142.11;100.00
14800;BME280;7491;57.750;11.970;2023-04-08T05:18:07;77798.94;;;-142.11;100.00
14800;BME280;7491;57.750;11.970;2023-04-08T05:20:34;77786.69;;;-142.11;100.00
14800;BME280;7491;57.750;11.970;2023-04-08T05:23:01;77803.00;;;-142.11;100.00
14800;BME280;7491;57.750;11.970;2023-04-08T05:25:28;77800.97;;;-142.11;100.00
14800;BME280;7491;57.750;11.970;2023-04-08T05:27:56;77792.81;;;-142.11;100.00
14800;BME280;7491;57.750;11.970;2023-04-08T05:30:23;77800.97;;;-142.11;100.00
14800;BME280;7491;57.750;11.970;2023-04-08T05:32:50;77800.97;;;-142.11;100.00
14800;BME280;7491;57.750;11.970;2023-04-08T05:35:16;77803.00;;;-142.11;100.00
14800;BME280;7491;57.750;11.970;2023-04-08T05:37:43;77798.94;;;-142.11;100.00
14800;BME280;7491;57.750;11.970;2023-04-08T05:40:10;77788.75;;;-142.11;100.00
14800;BME280;7491;57.750;11.970;2023-04-08T05:42:36;77792.81;;;-142.11;100.00
14800;BME280;7491;57.750;11.970;2023-04-08T05:45:06;77792.81;;;-142.11;100.00
14800;BME280;7491;57.750;11.970;2023-04-08T05:47:32;77794.84;;;-142.11;100.00
14800;BME280;7491;57.750;11.970;2023-04-08T05:49:59;77798.94;;;-142.11;100.00
14800;BME280;7491;57.750;11.970;2023-04-08T05:52:25;77811.16;;;-142.11;100.00
14800;BME280;7491;57.750;11.970;2023-04-08T05:54:52;77805.06;;;-142.11;100.00
14800;BME280;7491;57.750;11.970;2023-04-08T05:57:19;77815.25;;;-142.11;100.00
14800;BME280;7491;57.750;11.970;2023-04-08T05:59:45;77825.44;;;-142.11;100.00
14800;BME280;7491;57.750;11.970;2023-04-08T06:02:13;77831.56;;;-142.11;100.00
14800;BME280;7491;57.750;11.970;2023-04-08T06:04:40;77829.53;;;-142.11;100.00
14800;BME280;7491;57.750;11.970;2023-04-08T06:07:06;77839.72;;;-142.11;100.00
14800;BME280;7491;57.750;11.970;2023-04-08T06:09:34;77827.50;;;-142.11;100.00
14800;BME280;7491;57.750;11.970;2023-04-08T06:12:01;77835.66;;;-142.11;100.00
14800;BME280;7491;57.750;11.970;2023-04-08T06:14:28;77839.72;;;-142.11;100.00
14800;BME280;7491;57.750;11.970;2023-04-08T06:16:54;77833.59;;;-142.11;100.00
14800;BME280;7491;57.750;11.970;2023-04-08T06:19:22;77829.53;;;-142.11;100.00
14800;BME280;7491;57.750;11.970;2023-04-08T06:21:49;77839.72;;;-142.11;100.00
14800;BME280;7491;57.750;11.970;2023-04-08T06:24:16;77827.50;;;-142.11;100.00
14800;BME280;7491;57.750;11.970;2023-04-08T06:26:43;77843.81;;;-142.11;100.00
14800;BME280;7491;57.750;11.970;2023-04-08T06:29:09;77827.50;;;-142.11;100.00
14800;BME280;7491;57.750;11.970;2023-04-08T06:31:36;77837.69;;;-142.11;100.00
14800;BME280;7491;57.750;11.970;2023-04-08T06:34:03;77841.75;;;-142.11;100.00
14800;BME280;7491;57.750;11.970;2023-04-08T06:36:31;77841.75;;;-142.11;100.00
14800;BME280;7491;57.750;11.970;2023-04-08T06:38:57;77849.91;;;-142.11;100.00
14800;BME280;7491;57.750;11.970;2023-04-08T06:41:24;77854.00;;;-142.11;100.00
14800;BME280;7491;57.750;11.970;2023-04-08T06:43:50;77849.91;;;-142.11;100.00
14800;BME280;7491;57.750;11.970;2023-04-08T06:46:17;77851.97;;;-142.11;100.00
14800;BME280;7491;57.750;11.970;2023-04-08T06:48:44;77860.13;;;-142.11;100.00
14800;BME280;7491;57.750;11.970;2023-04-08T06:51:10;77839.72;;;-142.11;100.00
14800;BME280;7491;57.750;11.970;2023-04-08T06:53:38;77841.75;;;-142.11;100.00
14800;BME280;7491;57.750;11.970;2023-04-08T06:56:05;77835.66;;;-142.11;100.00
14800;BME280;7491;57.750;11.970;2023-04-08T06:58:31;77831.56;;;-142.11;100.00
14800;BME280;7491;57.750;11.970;2023-04-08T07:00:58;77823.41;;;-142.11;100.00
14800;BME280;7491;57.750;11.970;2023-04-08T07:03:25;77837.69;;;-142.11;100.00
14800;BME280;7491;57.750;11.970;2023-04-08T07:05:52;77833.59;;;-142.11;100.00
14800;BME280;7491;57.750;11.970;2023-04-08T07:08:19;77829.53;;;-142.11;100.00
14800;BME280;7491;57.750;11.970;2023-04-08T07:10:47;77817.28;;;-142.11;100.00
14800;BME280;7491;57.750;11.970;2023-04-08T07:13:14;77798.94;;;-142.11;100.00
14800;BME280;7491;57.750;11.970;2023-04-08T07:15:41;77800.97;;;-142.11;100.00
14800;BME280;7491;57.750;11.970;2023-04-08T07:18:08;77807.09;;;-142.11;100.00
14800;BME280;7491;57.750;11.970;2023-04-08T07:20:36;77805.06;;;-142.11;100.00
14800;BME280;7491;57.750;11.970;2023-04-08T07:23:03;77784.66;;;-142.11;100.00
14800;BME280;7491;57.750;11.970;2023-04-08T07:25:29;77776.50;;;-142.11;100.00
14800;BME280;7491;57.750;11.970;2023-04-08T07:27:58;77776.50;;;-142.11;100.00
14800;BME280;7491;57.750;11.970;2023-04-08T07:30:25;77762.22;;;-142.11;100.00
14800;BME280;7491;57.750;11.970;2023-04-08T07:32:51;77770.38;;;-142.11;100.00
14800;BME280;7491;57.750;11.970;2023-04-08T07:35:20;77760.19;;;-142.11;100.00
14800;BME280;7491;57.750;11.970;2023-04-08T07:37:48;77739.78;;;-142.11;100.00
14800;BME280;7491;57.750;11.970;2023-04-08T07:40:15;77727.56;;;-142.11;100.00
14800;BME280;7491;57.750;11.970;2023-04-08T07:42:42;77719.41;;;-142.11;100.00
14800;BME280;7491;57.750;11.970;2023-04-08T07:45:10;77701.03;;;-142.11;100.00
14800;BME280;7491;57.750;11.970;2023-04-08T07:47:37;77692.88;;;-142.11;100.00
14800;BME280;7491;57.750;11.970;2023-04-08T07:50:04;77692.88;;;-142.11;100.00
14800;BME280;7491;57.750;11.970;2023-04-08T07:52:31;77670.44;;;-142.11;100.00
14800;BME280;7491;57.750;11.970;2023-04-08T07:54:58;77670.44;;;-142.11;100.00
14800;BME280;7491;57.750;11.970;2023-04-08T07:57:25;77664.34;;;-142.11;100.00
14800;BME280;7491;57.750;11.970;2023-04-08T07:59:54;77650.06;;;-142.11;100.00
14800;BME280;7491;57.750;11.970;2023-04-08T08:02:22;77666.38;;;-142.11;100.00
14800;BME280;7491;57.750;11.970;2023-04-08T08:04:50;77652.09;;;-142.11;100.00
14800;BME280;7491;57.750;11.970;2023-04-08T08:07:16;77631.69;;;-142.11;100.00
14800;BME280;7491;57.750;11.970;2023-04-08T08:09:43;77619.47;;;-142.11;100.00
14800;BME280;7491;57.750;11.970;2023-04-08T08:12:09;77613.34;;;-142.11;100.00
14800;BME280;7491;57.750;11.970;2023-04-08T08:14:37;77621.50;;;-142.11;100.00
14800;BME280;7491;57.750;11.970;2023-04-08T08:17:03;77639.88;;;-142.11;100.00
14800;BME280;7491;57.750;11.970;2023-04-08T08:19:31;77617.44;;;-142.11;100.00
14800;BME280;7491;57.750;11.970;2023-04-08T08:21:58;77621.50;;;-142.11;100.00
14800;BME280;7491;57.750;11.970;2023-04-08T08:24:25;77611.31;;;-142.11;100.00
14800;BME280;7491;57.750;11.970;2023-04-08T08:26:51;77631.69;;;-142.11;100.00
14800;BME280;7491;57.750;11.970;2023-04-08T08:29:18;77625.59;;;-142.11;100.00
14800;BME280;7491;57.750;11.970;2023-04-08T08:31:45;77664.34;;;-142.11;100.00
14800;BME280;7491;57.750;11.970;2023-04-08T08:34:12;77650.06;;;-142.11;100.00
14800;BME280;7491;57.750;11.970;2023-04-08T08:36:40;77662.28;;;-142.11;100.00
14800;BME280;7491;57.750;11.970;2023-04-08T08:39:07;77656.19;;;-142.11;100.00
14800;BME280;7491;57.750;11.970;2023-04-08T08:41:34;77652.09;;;-142.11;100.00
14800;BME280;7491;57.750;11.970;2023-04-08T08:44:01;77641.91;;;-142.11;100.00
14800;BME280;7491;57.750;11.970;2023-04-08T08:46:28;77627.63;;;-142.11;100.00
14800;BME280;7491;57.750;11.970;2023-04-08T08:48:55;77619.47;;;-142.11;100.00
14800;BME280;7491;57.750;11.970;2023-04-08T08:51:23;77574.59;;;-142.11;100.00
14800;BME280;7491;57.750;11.970;2023-04-08T08:53:51;77552.16;;;-142.11;100.00
14800;BME280;7491;57.750;11.970;2023-04-08T08:56:18;77507.31;;;-142.11;100.00
14800;BME280;7491;57.750;11.970;2023-04-08T08:58:46;77493.03;;;-142.11;100.00
14800;BME280;7491;57.750;11.970;2023-04-08T09:01:37;77456.31;;;-142.11;100.00
14800;BME280;7491;57.750;11.970;2023-04-08T09:04:18;77454.28;;;-142.11;100.00
14800;BME280;7491;57.750;11.970;2023-04-08T09:06:47;77454.28;;;-142.11;100.00
14800;BME280;7491;57.750;11.970;2023-04-08T09:09:16;77440.00;;;-142.11;100.00
14800;BME280;7491;57.750;11.970;2023-04-08T09:11:44;77427.78;;;-142.11;100.00
14800;BME280;7491;57.750;11.970;2023-04-08T09:14:27;77423.69;;;-142.11;100.00
14800;BME280;7491;57.750;11.970;2023-04-08T09:20:07;77423.69;;;-142.11;100.00
14800;BME280;7491;57.750;11.970;2023-04-08T09:22:58;77411.47;;;-142.11;100.00
14800;BME280;7491;57.750;11.970;2023-04-08T09:29:03;77397.19;;;-142.11;100.00
14800;BME280;7491;57.750;11.970;2023-04-08T09:31:32;77403.31;;;-142.11;100.00
14800;BME280;7491;57.750;11.970;2023-04-08T10:13:55;77221.81;;;-142.11;99.25
14800;BME280;7491;57.750;11.970;2023-04-08T10:16:25;77205.50;;;-142.11;99.91
14800;BME280;7491;57.750;11.970;2023-04-08T10:18:55;77215.69;;;-142.11;98.21
14800;BME280;7491;57.750;11.970;2023-04-08T10:21:35;77219.78;;;-142.11;98.98
14800;BME280;7491;57.750;11.970;2023-04-08T10:24:06;77219.78;;;-142.11;98.49
14800;BME280;7491;57.750;11.970;2023-04-08T10:26:38;77209.56;;;-142.11;98.80
14800;BME280;7491;57.750;11.970;2023-04-08T10:29:31;77187.16;;;-142.11;98.98
14800;BME280;7491;57.750;11.970;2023-04-08T10:31:58;77185.09;;;-142.11;98.04
14800;BME280;7491;57.750;11.970;2023-04-08T10:34:25;77170.84;;;-142.11;97.79
14800;BME280;7491;57.750;11.970;2023-04-08T10:36:55;77158.59;;;-142.11;97.55
14800;BME280;7491;57.750;11.970;2023-04-08T10:39:24;77152.47;;;-142.11;97.76
14800;BME280;7491;57.750;11.970;2023-04-08T10:41:51;77125.97;;;-142.11;97.63
14800;BME280;7491;57.750;11.970;2023-04-08T10:44:19;77099.47;;;-142.11;97.91
14800;BME280;7491;57.750;11.970;2023-04-08T10:46:49;77077.03;;;-142.11;99.39
14800;BME280;7491;57.750;11.970;2023-04-08T10:49:16;77079.06;;;-142.11;96.75
14800;BME280;7491;57.750;11.970;2023-04-08T10:51:43;77046.44;;;-142.11;97.72
14800;BME280;7491;57.750;11.970;2023-04-08T10:54:11;77032.19;;;-142.11;97.67
14800;BME280;7491;57.750;11.970;2023-04-08T10:56:43;77017.91;;;-142.11;97.38
14800;BME280;7491;57.750;11.970;2023-04-08T10:59:12;77030.13;;;-142.11;96.79
14800;BME280;7491;57.750;11.970;2023-04-08T11:01:41;77032.19;;;-142.11;96.63
14800;BME280;7491;57.750;11.970;2023-04-08T11:04:14;77011.78;;;-142.11;96.36
14800;BME280;7491;57.750;11.970;2023-04-08T11:06:43;76999.56;;;-142.11;96.92
14800;BME280;7491;57.750;11.970;2023-04-08T11:09:11;76968.97;;;-142.11;96.94
14800;BME280;7491;57.750;11.970;2023-04-08T11:11:40;76928.19;;;-142.11;96.85
14800;BME280;7491;57.750;11.970;2023-04-08T11:14:07;76903.72;;;-142.11;96.62
14800;BME280;7491;57.750;11.970;2023-04-08T11:16:36;76895.56;;;-142.11;96.69
14800;BME280;7491;57.750;11.970;2023-04-08T11:19:04;76897.59;;;-142.11;97.07
14800;BME280;7491;57.750;11.970;2023-04-08T11:21:34;76903.72;;;-142.11;95.14
14800;BME280;7491;57.750;11.970;2023-04-08T11:24:05;76909.84;;;-142.11;95.52
14800;BME280;7491;57.750;11.970;2023-04-08T11:26:32;76889.44;;;-142.11;96.34
14800;BME280;7491;57.750;11.970;2023-04-08T11:28:59;76889.44;;;-142.11;95.16
14800;BME280;7491;57.750;11.970;2023-04-08T11:31:26;76915.97;;;-142.11;94.87
14800;BME280;7491;57.750;11.970;2023-04-08T11:33:53;76915.97;;;-142.11;95.13
14800;BME280;7491;57.750;11.970;2023-04-08T11:36:20;76899.66;;;-142.11;95.68
14800;BME280;7491;57.750;11.970;2023-04-08T11:38:48;76893.53;;;-142.11;95.78
14800;BME280;7491;57.750;11.970;2023-04-08T11:41:15;76903.72;;;-142.11;95.15
14800;BME280;7491;57.750;11.970;2023-04-08T11:43:53;76891.50;;;-142.11;95.91
14800;BME280;7491;57.750;11.970;2023-04-08T11:46:20;76858.88;;;-142.11;95.21
14800;BME280;7491;57.750;11.970;2023-04-08T11:48:57;76842.56;;;-142.11;95.57
14800;BME280;7491;57.750;11.970;2023-04-08T11:51:24;76860.91;;;-142.11;94.30
14800;BME280;7491;57.750;11.970;2023-04-08T11:53:53;76873.13;;;-142.11;94.59
14800;BME280;7491;57.750;11.970;2023-04-08T11:56:21;76844.59;;;-142.11;95.00
14800;BME280;7491;57.750;11.970;2023-04-08T11:58:49;76842.56;;;-142.11;95.10
14800;BME280;7491;57.750;11.970;2023-04-08T12:01:16;76846.63;;;-142.11;94.69
14800;BME280;7491;57.750;11.970;2023-04-08T12:03:56;76832.34;;;-142.11;94.81
14800;BME280;7491;57.750;11.970;2023-04-08T12:06:23;76834.41;;;-142.11;94.07
14800;BME280;7491;57.750;11.970;2023-04-08T12:08:53;76838.47;;;-142.11;95.98
14800;BME280;7491;57.750;11.970;2023-04-08T12:11:20;76844.59;;;-142.11;95.27
14800;BME280;7491;57.750;11.970;2023-04-08T12:13:47;76816.06;;;-142.11;95.45
14800;BME280;7491;57.750;11.970;2023-04-08T12:16:15;76789.53;;;-142.11;95.27
14800;BME280;7491;57.750;11.970;2023-04-08T12:18:42;76783.44;;;-142.11;94.79
14800;BME280;7491;57.750;11.970;2023-04-08T12:21:08;76789.53;;;-142.11;95.18
14800;BME280;7491;57.750;11.970;2023-04-08T12:23:35;76787.50;;;-142.11;94.76
14800;BME280;7491;57.750;11.970;2023-04-08T12:26:04;76781.38;;;-142.11;95.36
14800;BME280;7491;57.750;11.970;2023-04-08T12:28:31;76775.28;;;-142.11;95.60
14800;BME280;7491;57.750;11.970;2023-04-08T12:30:58;76769.16;;;-142.11;95.25
14800;BME280;7491;57.750;11.970;2023-04-08T12:33:26;76787.50;;;-142.11;94.47
14800;BME280;7491;57.750;11.970;2023-04-08T12:35:52;76787.50;;;-142.11;94.97
14800;BME280;7491;57.750;11.970;2023-04-08T12:38:19;76781.38;;;-142.11;95.50
14800;BME280;7491;57.750;11.970;2023-04-08T12:40:46;76773.22;;;-142.11;95.38
14800;BME280;7491;57.750;11.970;2023-04-08T12:43:14;76799.75;;;-142.11;95.02
14800;BME280;7491;57.750;11.970;2023-04-08T12:45:40;76775.28;;;-142.11;95.54
14800;BME280;7491;57.750;11.970;2023-04-08T12:48:07;76767.13;;;-142.11;95.66
14800;BME280;7491;57.750;11.970;2023-04-08T12:50:34;76779.34;;;-142.11;95.04
14800;BME280;7491;57.750;11.970;2023-04-08T12:53:01;76769.16;;;-142.11;95.09
14800;BME280;7491;57.750;11.970;2023-04-08T12:55:27;76793.63;;;-142.11;94.83
14800;BME280;7491;57.750;11.970;2023-04-08T12:57:54;76771.19;;;-142.11;95.97
14800;BME280;7491;57.750;11.970;2023-04-08T13:00:22;76763.03;;;-142.11;95.17
14800;BME280;7491;57.750;11.970;2023-04-08T13:02:50;76758.97;;;-142.11;95.46
14800;BME280;7491;57.750;11.970;2023-04-08T13:05:16;76722.25;;;-142.11;95.64
14800;BME280;7491;57.750;11.970;2023-04-08T13:07:44;76744.69;;;-142.11;94.62
14800;BME280;7491;57.750;11.970;2023-04-08T13:10:11;76726.34;;;-142.11;94.70
14800;BME280;7491;57.750;11.970;2023-04-08T13:12:38;76736.53;;;-142.11;94.78
14800;BME280;7491;57.750;11.970;2023-04-08T13:15:06;76754.88;;;-142.11;94.60
14800;BME280;7491;57.750;11.970;2023-04-08T13:17:35;76726.34;;;-142.11;94.89
14800;BME280;7491;57.750;11.970;2023-04-08T13:20:01;76726.34;;;-142.11;95.07
14800;BME280;7491;57.750;11.970;2023-04-08T13:22:28;76695.75;;;-142.11;94.22
14800;BME280;7491;57.750;11.970;2023-04-08T13:24:55;76689.63;;;-142.11;94.83